• Join FlightAware (Why Join?)
  • Login
  • US Flag 
04:50AM EDT


 

Airport Tracker/Info


-or-


 

Live Flight TrackerFlight Track Log ✈ SWA183 ✈ 04-05-2013 ✈ KELP - KLAX

Flight Track Log - Related Links

Times and Time Zones

All times are in EDT time to prevent confusion due to time zone crossing. See the SWA183 flight status page for this flight to view local times or setup timezone preferences in your user account.

Time Position Orientation Groundspeed Altitude Reporting Facility
EDT Latitude Longitude Course Direction KTS MPH feet Rate Location/Type
06:34PM 31.7969 -106.4092 244° Southwest 174 200 5,200  Level Albuquerque Center
06:35PM 31.7717 -106.4700 244° Southwest 215 247 7,500 2,220 Climbing Albuquerque Center
06:36PM 31.7844 -106.5497 281° West 272 313 10,000 2,880 Climbing Albuquerque Center
06:37PM 31.8122 -106.6531 288° West 309 356 13,500 3,600 Climbing Albuquerque Center
06:38PM 31.8144 -106.7572 271° West 317 365 17,500 3,240 Climbing Albuquerque Center
06:39PM 31.8131 -106.8761 269° West 357 411 20,100 2,760 Climbing Albuquerque Center
06:41PM 31.8142 -106.9953 271° West 373 429 23,200 2,640 Climbing Albuquerque Center
06:42PM 31.8125 -107.1225 269° West 386 444 25,600 2,280 Climbing Albuquerque Center
06:43PM 31.8108 -107.2575 269° West 404 465 27,900 2,100 Climbing Albuquerque Center
06:44PM 31.8100 -107.3936 270° West 413 475 30,000 2,340 Climbing Albuquerque Center
06:45PM 31.8094 -107.5403 270° West 419 482 32,700 2,340 Climbing Albuquerque Center
06:46PM 31.8256 -107.6725 278° West 413 475 34,800 2,040 Climbing Albuquerque Center
06:47PM 31.8475 -107.8019 281° West 408 470 37,000 2,160 Climbing Albuquerque Center
06:48PM 31.8864 -107.9464 288° West 393 452 39,300 1,440 Climbing Albuquerque Center
06:49PM 31.9208 -108.0611 290° West 385 443 40,000 300 Climbing Albuquerque Center
06:50PM 31.9547 -108.1811 288° West 381 438 40,000  Level Albuquerque Center
06:51PM 31.9892 -108.3008 289° West 385 443 40,000  Level Albuquerque Center
06:52PM 32.0236 -108.4194 289° West 386 444 40,000  Level Albuquerque Center
06:53PM 32.0581 -108.5344 289° West 382 440 40,000  Level Albuquerque Center
06:54PM 32.0925 -108.6508 289° West 379 436 40,000  Level Albuquerque Center
06:55PM 32.1269 -108.7689 289° West 382 440 40,000  Level Albuquerque Center
06:56PM 32.1669 -108.9100 289° West 380 437 40,000  Level Albuquerque Center
06:57PM 32.2011 -109.0275 289° West 381 438 40,000  Level Albuquerque Center
06:58PM 32.2344 -109.1442 289° West 379 436 40,000  Level Albuquerque Center
06:59PM 32.2686 -109.2625 289° West 380 437 40,000  Level Albuquerque Center
07:00PM 32.3078 -109.3758 292° West 378 435 40,000  Level Albuquerque Center
07:01PM 32.3472 -109.4900 292° West 378 435 40,000  Level Albuquerque Center
07:02PM 32.3867 -109.6036 292° West 376 433 40,000  Level Albuquerque Center
07:03PM 32.4278 -109.7208 293° West 384 442 40,000  Level Albuquerque Center
07:04PM 32.4781 -109.8617 293° West 387 445 40,000  Level Albuquerque Center
07:05PM 32.5181 -109.9789 292° West 387 445 40,000  Level Albuquerque Center
07:06PM 32.5583 -110.0956 292° West 386 444 40,000  Level Albuquerque Center
07:07PM 32.5981 -110.2133 292° West 386 444 40,000  Level Albuquerque Center
07:08PM 32.6381 -110.3297 292° West 385 443 40,000  Level Albuquerque Center
07:09PM 32.6772 -110.4456 292° West 383 441 40,000  Level Albuquerque Center
07:10PM 32.7169 -110.5608 292° West 381 438 40,000  Level Albuquerque Center
07:11PM 32.7572 -110.6803 292° West 380 437 40,000  Level Albuquerque Center
07:12PM 32.7967 -110.7978 292° West 382 440 40,000 240 Level Albuquerque Center
07:13PM 32.8433 -110.9375 292° West 381 438 40,500  Climbing Albuquerque Center
07:14PM 32.8839 -111.0547 292° West 382 440 40,000 -300 Descending Albuquerque Center
07:15PM 32.9217 -111.1722 291° West 381 438 40,000  Level Albuquerque Center
07:16PM 32.9614 -111.2878 292° West 379 436 40,000  Level Albuquerque Center
07:17PM 32.9997 -111.4072 291° West 383 441 40,000  Level Albuquerque Center
07:18PM 33.0389 -111.5258 292° West 385 443 40,000  Level Albuquerque Center
07:19PM 33.0775 -111.6447 291° West 385 443 40,000  Level Albuquerque Center
07:20PM 33.1153 -111.7631 291° West 383 441 40,000  Level Albuquerque Center
07:21PM 33.1547 -111.8828 292° West 385 443 40,000  Level Albuquerque Center
07:22PM 33.1939 -112.0042 291° West 389 448 40,000  Level Albuquerque Center
07:23PM 33.2317 -112.1222 291° West 385 443 40,000  Level Albuquerque Center
07:24PM 33.2764 -112.2650 291° West 382 440 40,000  Level Albuquerque Center
07:25PM 33.3144 -112.3853 291° West 387 445 40,000  Level Albuquerque Center
07:26PM 33.3533 -112.5061 291° West 388 447 40,000  Level Albuquerque Center
07:27PM 33.3867 -112.6119 291° West 391 450 40,000  Level Albuquerque Center
07:29PM 33.4319 -112.7556 291° West 388 447 40,000  Level Albuquerque Center
07:30PM 33.4714 -112.8758 291° West 389 448 40,000  Level Albuquerque Center
07:31PM 33.5144 -112.9956 293° West 392 451 40,000  Level Albuquerque Center
07:32PM 33.5561 -113.1131 293° West 388 447 40,000  Level Albuquerque Center
07:33PM 33.5989 -113.2319 293° West 389 448 40,000  Level Albuquerque Center
07:34PM 33.6400 -113.3475 293° West 389 448 40,000  Level Albuquerque Center
07:35PM 33.6822 -113.4672 293° West 389 448 40,000  Level Albuquerque Center
07:36PM 33.7244 -113.5875 293° West 391 450 40,000  Level Albuquerque Center
07:37PM 33.7739 -113.7311 293° West 388 447 40,000  Level Albuquerque Center
07:38PM 33.8156 -113.8481 293° West 384 442 40,000  Level Albuquerque Center
07:39PM 33.8578 -113.9689 293° West 389 448 40,000  Level Albuquerque Center
07:40PM 33.8997 -114.0900 293° West 390 449 40,000  Level Albuquerque Center
07:41PM 33.9408 -114.2097 293° West 389 448 40,000  Level Albuquerque Center
07:42PM 33.9822 -114.3319 292° West 388 447 40,000  Level Albuquerque Center
07:43PM 34.0231 -114.4525 292° West 389 448 40,000  Level Albuquerque Center
07:43PM 34.0333 -114.4800 294° West 389 448 40,000  Level Los Angeles Center
07:44PM 34.0911 -114.6492 292° West 390 449 40,000  Level Los Angeles Center
07:45PM 34.1033 -114.7744 277° West 384 442 40,000  Level Los Angeles Center
07:46PM 34.1056 -114.9025 271° West 382 440 40,000  Level Los Angeles Center
07:47PM 34.1069 -115.0322 271° West 387 445 40,000  Level Los Angeles Center
07:48PM 34.1078 -115.1614 270° West 387 445 40,000  Level Los Angeles Center
07:49PM 34.1097 -115.2906 271° West 387 445 40,000  Level Los Angeles Center
07:51PM 34.1106 -115.4728 270° West 387 445 40,000 -240 Level Los Angeles Center
07:52PM 34.1111 -115.6017 270° West 388 447 39,500 -780 Descending Los Angeles Center
07:53PM 34.1125 -115.7294 271° West 383 441 38,500 -960 Descending Los Angeles Center
07:54PM 34.0997 -115.8531 263° West 374 430 37,600 -960 Descending Los Angeles Center
07:55PM 34.0817 -115.9769 260° West 378 435 36,600 -960 Descending Los Angeles Center
07:56PM 34.0667 -116.0794 260° West 386 444 35,700 -1,980 Descending Los Angeles Center
07:57PM 34.0397 -116.2533 259° West 379 436 32,600 -2,520 Descending Los Angeles Center
07:58PM 34.0225 -116.3708 260° West 360 414 30,500 -2,040 Descending Los Angeles Center
07:59PM 34.0050 -116.4842 259° West 348 400 28,500 -1,860 Descending Los Angeles Center
08:00PM 33.9972 -116.5956 265° West 338 389 26,400 -1,980 Descending Los Angeles Center
08:01PM 33.9858 -116.7228 264° West 321 369 24,100 -2,040 Descending Los Angeles Center
08:02PM 33.9775 -116.8297 265° West 322 371 22,200 -2,100 Descending Los Angeles Center
08:03PM 33.9667 -116.9167 261° West 315 362 20,600 -2,100 Descending Southern California TRACON
08:04PM 33.9667 -117.0333 270° West 306 352 18,700 -1,800 Descending Southern California TRACON
08:05PM 33.9500 -117.1167 256° West 306 352 17,000 -840 Descending Southern California TRACON
08:06PM 33.9500 -117.2333 270° West 310 357 17,000 -660 Level Southern California TRACON
08:07PM 33.9333 -117.3333 259° West 304 350 15,700 -1,740 Descending Southern California TRACON
08:08PM 33.9500 -117.4333 281° West 299 344 13,600 -1,860 Descending Southern California TRACON
08:09PM 33.9833 -117.5333 292° West 288 331 11,900 -1,560 Descending Southern California TRACON
08:10PM 34.0167 -117.6167 296° West 331 381 10,500 -1,020 Descending Southern California TRACON
08:11PM 34.0167 -117.7000 270° West 253 291 9,900 -900 Descending Southern California TRACON
08:12PM 34.0167 -117.7833 270° West 246 283 8,700 -1,200 Descending Southern California TRACON
08:13PM 34.0000 -117.8667 256° West 247 284 7,700 -1,080 Descending Southern California TRACON
08:14PM 34.0000 -117.9500 270° West 253 291 6,600 -1,080 Descending Southern California TRACON
08:15PM 33.9833 -118.0500 259° West 261 300 5,500 -1,080 Descending Southern California TRACON
08:16PM 33.9833 -118.1167 270° West 244 281 4,500 -960 Descending Southern California TRACON
08:17PM 33.9736 -118.1700 258° West 248 285 4,000 -1,080 Descending Los Angeles Center
08:18PM 33.9669 -118.2383 263° West 219 252 2,800 -1,080 Descending Los Angeles Center
08:19PM 33.9617 -118.2942 264° West 192 221 1,900 -780 Descending Los Angeles Center
08:20PM 33.9561 -118.3425 262° West 166 191 1,200 -720 Descending Los Angeles Center
08:21PM 33.9525 -118.3883 265° West 150 173 500 -720 Descending Los Angeles Center
08:23PM 33.9333 -118.4000 270° West  Level FlightAware Approximate